sensor_id;sensor_type;location;lat;lon;timestamp;P1;durP1;ratioP1;P2;durP2;ratioP2
19589;SDS011;12231;42.782;23.388;2023-04-07T00:00:21;19.00;;;12.23;;
19589;SDS011;12231;42.782;23.388;2023-04-07T00:02:47;28.73;;;15.90;;
19589;SDS011;12231;42.782;23.388;2023-04-07T00:05:13;29.77;;;16.87;;
19589;SDS011;12231;42.782;23.388;2023-04-07T00:07:39;28.20;;;16.20;;
19589;SDS011;12231;42.782;23.388;2023-04-07T00:10:04;29.77;;;16.03;;
19589;SDS011;12231;42.782;23.388;2023-04-07T00:12:30;24.23;;;14.50;;
19589;SDS011;12231;42.782;23.388;2023-04-07T00:14:56;19.70;;;12.43;;
19589;SDS011;12231;42.782;23.388;2023-04-07T00:17:21;22.20;;;11.73;;
19589;SDS011;12231;42.782;23.388;2023-04-07T00:19:47;15.97;;;11.60;;
19589;SDS011;12231;42.782;23.388;2023-04-07T00:22:12;22.33;;;13.80;;
19589;SDS011;12231;42.782;23.388;2023-04-07T00:24:37;24.07;;;14.93;;
19589;SDS011;12231;42.782;23.388;2023-04-07T00:27:03;18.93;;;12.43;;
19589;SDS011;12231;42.782;23.388;2023-04-07T00:29:28;15.83;;;11.00;;
19589;SDS011;12231;42.782;23.388;2023-04-07T00:31:54;17.13;;;11.67;;
19589;SDS011;12231;42.782;23.388;2023-04-07T00:34:19;16.80;;;11.73;;
19589;SDS011;12231;42.782;23.388;2023-04-07T00:36:45;18.90;;;13.13;;
19589;SDS011;12231;42.782;23.388;2023-04-07T00:39:15;18.77;;;12.70;;
19589;SDS011;12231;42.782;23.388;2023-04-07T00:41:41;17.17;;;11.77;;
19589;SDS011;12231;42.782;23.388;2023-04-07T00:44:07;16.57;;;10.77;;
19589;SDS011;12231;42.782;23.388;2023-04-07T00:46:32;15.30;;;10.90;;
19589;SDS011;12231;42.782;23.388;2023-04-07T00:48:58;16.00;;;11.13;;
19589;SDS011;12231;42.782;23.388;2023-04-07T00:51:24;17.73;;;11.07;;
19589;SDS011;12231;42.782;23.388;2023-04-07T00:53:51;13.30;;;9.80;;
19589;SDS011;12231;42.782;23.388;2023-04-07T00:56:16;15.77;;;11.13;;
19589;SDS011;12231;42.782;23.388;2023-04-07T00:58:42;15.67;;;10.60;;
19589;SDS011;12231;42.782;23.388;2023-04-07T01:01:08;14.63;;;10.70;;
19589;SDS011;12231;42.782;23.388;2023-04-07T01:03:47;20.13;;;12.77;;
19589;SDS011;12231;42.782;23.388;2023-04-07T01:06:17;13.97;;;9.93;;
19589;SDS011;12231;42.782;23.388;2023-04-07T01:13:57;31.83;;;17.30;;
19589;SDS011;12231;42.782;23.388;2023-04-07T01:16:33;57.80;;;33.03;;
19589;SDS011;12231;42.782;23.388;2023-04-07T01:19:11;55.53;;;29.77;;
19589;SDS011;12231;42.782;23.388;2023-04-07T01:21:37;18.27;;;12.97;;
19589;SDS011;12231;42.782;23.388;2023-04-07T01:26:59;16.77;;;11.90;;
19589;SDS011;12231;42.782;23.388;2023-04-07T01:29:49;16.07;;;10.63;;
19589;SDS011;12231;42.782;23.388;2023-04-07T01:32:16;16.40;;;10.93;;
19589;SDS011;12231;42.782;23.388;2023-04-07T01:34:44;17.13;;;11.47;;
19589;SDS011;12231;42.782;23.388;2023-04-07T01:37:12;17.70;;;11.27;;
19589;SDS011;12231;42.782;23.388;2023-04-07T01:39:40;17.03;;;11.60;;
19589;SDS011;12231;42.782;23.388;2023-04-07T01:42:05;14.73;;;10.67;;
19589;SDS011;12231;42.782;23.388;2023-04-07T01:44:32;17.07;;;11.53;;
19589;SDS011;12231;42.782;23.388;2023-04-07T01:46:58;20.20;;;11.40;;
19589;SDS011;12231;42.782;23.388;2023-04-07T01:49:24;14.90;;;10.70;;
19589;SDS011;12231;42.782;23.388;2023-04-07T01:51:51;19.10;;;12.40;;
19589;SDS011;12231;42.782;23.388;2023-04-07T01:54:18;19.77;;;12.47;;
19589;SDS011;12231;42.782;23.388;2023-04-07T01:56:44;16.10;;;12.33;;
19589;SDS011;12231;42.782;23.388;2023-04-07T01:59:09;26.33;;;14.73;;
19589;SDS011;12231;42.782;23.388;2023-04-07T02:01:35;33.10;;;17.07;;
19589;SDS011;12231;42.782;23.388;2023-04-07T02:04:04;27.10;;;15.70;;
19589;SDS011;12231;42.782;23.388;2023-04-07T02:06:32;20.97;;;13.97;;
19589;SDS011;12231;42.782;23.388;2023-04-07T02:09:02;20.77;;;13.93;;
19589;SDS011;12231;42.782;23.388;2023-04-07T02:11:32;24.70;;;13.93;;
19589;SDS011;12231;42.782;23.388;2023-04-07T02:14:00;21.80;;;14.03;;
19589;SDS011;12231;42.782;23.388;2023-04-07T02:16:28;19.77;;;13.20;;
19589;SDS011;12231;42.782;23.388;2023-04-07T02:18:55;23.50;;;14.40;;
19589;SDS011;12231;42.782;23.388;2023-04-07T02:21:22;21.03;;;13.90;;
19589;SDS011;12231;42.782;23.388;2023-04-07T02:23:50;23.07;;;15.07;;
19589;SDS011;12231;42.782;23.388;2023-04-07T02:26:15;22.60;;;15.03;;
19589;SDS011;12231;42.782;23.388;2023-04-07T02:28:41;44.63;;;22.23;;
19589;SDS011;12231;42.782;23.388;2023-04-07T02:31:06;33.20;;;20.00;;
19589;SDS011;12231;42.782;23.388;2023-04-07T02:33:31;35.77;;;21.93;;
19589;SDS011;12231;42.782;23.388;2023-04-07T02:35:57;81.67;;;37.73;;
19589;SDS011;12231;42.782;23.388;2023-04-07T02:38:22;44.23;;;23.90;;
19589;SDS011;12231;42.782;23.388;2023-04-07T02:40:48;36.70;;;22.57;;
19589;SDS011;12231;42.782;23.388;2023-04-07T02:43:13;28.60;;;17.50;;
19589;SDS011;12231;42.782;23.388;2023-04-07T02:45:39;25.97;;;14.33;;
19589;SDS011;12231;42.782;23.388;2023-04-07T02:48:04;23.53;;;14.53;;
19589;SDS011;12231;42.782;23.388;2023-04-07T02:50:30;23.13;;;15.10;;
19589;SDS011;12231;42.782;23.388;2023-04-07T02:52:55;26.90;;;16.23;;
19589;SDS011;12231;42.782;23.388;2023-04-07T02:55:20;37.57;;;19.87;;
19589;SDS011;12231;42.782;23.388;2023-04-07T02:57:46;47.53;;;25.63;;
19589;SDS011;12231;42.782;23.388;2023-04-07T03:00:11;51.80;;;28.03;;
19589;SDS011;12231;42.782;23.388;2023-04-07T03:02:38;48.37;;;25.83;;
19589;SDS011;12231;42.782;23.388;2023-04-07T03:05:04;73.97;;;34.47;;
19589;SDS011;12231;42.782;23.388;2023-04-07T03:07:29;41.73;;;21.87;;
19589;SDS011;12231;42.782;23.388;2023-04-07T03:09:56;34.17;;;18.37;;
19589;SDS011;12231;42.782;23.388;2023-04-07T03:12:21;29.03;;;17.63;;
19589;SDS011;12231;42.782;23.388;2023-04-07T03:14:47;40.87;;;22.43;;
19589;SDS011;12231;42.782;23.388;2023-04-07T03:17:12;40.27;;;21.73;;
19589;SDS011;12231;42.782;23.388;2023-04-07T03:19:38;32.27;;;19.93;;
19589;SDS011;12231;42.782;23.388;2023-04-07T03:22:03;32.87;;;19.77;;
19589;SDS011;12231;42.782;23.388;2023-04-07T03:24:28;41.27;;;23.83;;
19589;SDS011;12231;42.782;23.388;2023-04-07T03:26:54;66.60;;;25.90;;
19589;SDS011;12231;42.782;23.388;2023-04-07T03:29:20;37.13;;;20.40;;
19589;SDS011;12231;42.782;23.388;2023-04-07T03:31:45;70.87;;;27.83;;
19589;SDS011;12231;42.782;23.388;2023-04-07T03:34:11;68.03;;;28.87;;
19589;SDS011;12231;42.782;23.388;2023-04-07T03:36:36;52.70;;;24.10;;
19589;SDS011;12231;42.782;23.388;2023-04-07T03:39:01;24.47;;;14.53;;
19589;SDS011;12231;42.782;23.388;2023-04-07T03:41:27;26.23;;;14.53;;
19589;SDS011;12231;42.782;23.388;2023-04-07T03:43:53;24.67;;;14.70;;
19589;SDS011;12231;42.782;23.388;2023-04-07T03:46:18;26.60;;;14.97;;
19589;SDS011;12231;42.782;23.388;2023-04-07T03:48:45;28.57;;;15.07;;
19589;SDS011;12231;42.782;23.388;2023-04-07T03:51:11;25.83;;;15.20;;
19589;SDS011;12231;42.782;23.388;2023-04-07T03:53:36;23.43;;;14.60;;
19589;SDS011;12231;42.782;23.388;2023-04-07T03:56:02;24.57;;;15.27;;
19589;SDS011;12231;42.782;23.388;2023-04-07T03:58:28;22.17;;;14.43;;
19589;SDS011;12231;42.782;23.388;2023-04-07T04:00:53;30.10;;;17.10;;
19589;SDS011;12231;42.782;23.388;2023-04-07T04:03:19;30.03;;;16.73;;
19589;SDS011;12231;42.782;23.388;2023-04-07T04:05:44;31.97;;;17.37;;
19589;SDS011;12231;42.782;23.388;2023-04-07T04:08:10;32.70;;;19.20;;
19589;SDS011;12231;42.782;23.388;2023-04-07T04:10:35;35.73;;;20.50;;
19589;SDS011;12231;42.782;23.388;2023-04-07T04:13:01;46.00;;;25.20;;
19589;SDS011;12231;42.782;23.388;2023-04-07T04:15:28;44.13;;;23.40;;
19589;SDS011;12231;42.782;23.388;2023-04-07T04:17:53;41.40;;;23.20;;
19589;SDS011;12231;42.782;23.388;2023-04-07T04:20:19;37.20;;;19.93;;
19589;SDS011;12231;42.782;23.388;2023-04-07T04:22:46;37.00;;;21.47;;
19589;SDS011;12231;42.782;23.388;2023-04-07T04:25:11;38.53;;;21.10;;
19589;SDS011;12231;42.782;23.388;2023-04-07T04:27:36;38.83;;;20.47;;
19589;SDS011;12231;42.782;23.388;2023-04-07T04:30:02;34.93;;;22.43;;
19589;SDS011;12231;42.782;23.388;2023-04-07T04:32:28;32.77;;;19.20;;
19589;SDS011;12231;42.782;23.388;2023-04-07T04:34:53;37.90;;;22.53;;
19589;SDS011;12231;42.782;23.388;2023-04-07T04:37:19;38.77;;;22.57;;
19589;SDS011;12231;42.782;23.388;2023-04-07T04:39:44;39.93;;;23.63;;
19589;SDS011;12231;42.782;23.388;2023-04-07T04:42:10;48.70;;;30.23;;
19589;SDS011;12231;42.782;23.388;2023-04-07T04:44:36;58.97;;;36.63;;
19589;SDS011;12231;42.782;23.388;2023-04-07T04:47:01;63.10;;;36.93;;
19589;SDS011;12231;42.782;23.388;2023-04-07T04:49:27;50.50;;;27.33;;
19589;SDS011;12231;42.782;23.388;2023-04-07T04:51:52;55.53;;;32.10;;
19589;SDS011;12231;42.782;23.388;2023-04-07T04:54:18;65.63;;;35.70;;
19589;SDS011;12231;42.782;23.388;2023-04-07T04:56:43;64.27;;;35.10;;
19589;SDS011;12231;42.782;23.388;2023-04-07T04:59:09;44.73;;;24.00;;
19589;SDS011;12231;42.782;23.388;2023-04-07T05:01:34;35.20;;;20.73;;
19589;SDS011;12231;42.782;23.388;2023-04-07T05:04:00;34.50;;;19.23;;
19589;SDS011;12231;42.782;23.388;2023-04-07T05:06:25;30.03;;;17.17;;
19589;SDS011;12231;42.782;23.388;2023-04-07T05:08:51;30.27;;;17.23;;
19589;SDS011;12231;42.782;23.388;2023-04-07T05:11:17;28.67;;;16.87;;
19589;SDS011;12231;42.782;23.388;2023-04-07T05:13:43;38.90;;;20.17;;
19589;SDS011;12231;42.782;23.388;2023-04-07T05:16:08;37.60;;;19.10;;
19589;SDS011;12231;42.782;23.388;2023-04-07T05:18:33;37.43;;;20.17;;
19589;SDS011;12231;42.782;23.388;2023-04-07T05:20:59;29.00;;;17.73;;
19589;SDS011;12231;42.782;23.388;2023-04-07T05:23:25;37.67;;;21.90;;
19589;SDS011;12231;42.782;23.388;2023-04-07T05:25:51;48.73;;;24.63;;
19589;SDS011;12231;42.782;23.388;2023-04-07T05:28:17;28.07;;;16.57;;
19589;SDS011;12231;42.782;23.388;2023-04-07T05:30:42;29.77;;;17.57;;
19589;SDS011;12231;42.782;23.388;2023-04-07T05:33:08;31.03;;;18.80;;
19589;SDS011;12231;42.782;23.388;2023-04-07T05:35:33;29.67;;;16.20;;
19589;SDS011;12231;42.782;23.388;2023-04-07T05:37:59;23.63;;;15.30;;
19589;SDS011;12231;42.782;23.388;2023-04-07T05:40:24;34.70;;;19.00;;
19589;SDS011;12231;42.782;23.388;2023-04-07T05:42:50;25.47;;;16.33;;
19589;SDS011;12231;42.782;23.388;2023-04-07T05:45:15;31.33;;;17.80;;
19589;SDS011;12231;42.782;23.388;2023-04-07T05:47:40;28.60;;;17.07;;
19589;SDS011;12231;42.782;23.388;2023-04-07T05:50:06;28.70;;;16.63;;
19589;SDS011;12231;42.782;23.388;2023-04-07T05:52:32;30.37;;;18.77;;
19589;SDS011;12231;42.782;23.388;2023-04-07T05:54:57;29.57;;;17.97;;
19589;SDS011;12231;42.782;23.388;2023-04-07T05:57:23;25.33;;;17.27;;
19589;SDS011;12231;42.782;23.388;2023-04-07T05:59:48;27.30;;;16.43;;
19589;SDS011;12231;42.782;23.388;2023-04-07T06:02:13;39.67;;;22.50;;
19589;SDS011;12231;42.782;23.388;2023-04-07T06:04:39;37.33;;;21.63;;
19589;SDS011;12231;42.782;23.388;2023-04-07T06:07:06;30.97;;;18.27;;
19589;SDS011;12231;42.782;23.388;2023-04-07T06:09:31;40.53;;;25.63;;
19589;SDS011;12231;42.782;23.388;2023-04-07T06:11:57;48.73;;;25.57;;
19589;SDS011;12231;42.782;23.388;2023-04-07T06:14:23;57.87;;;29.77;;
19589;SDS011;12231;42.782;23.388;2023-04-07T06:16:49;57.47;;;31.40;;
19589;SDS011;12231;42.782;23.388;2023-04-07T06:19:15;60.23;;;31.97;;
19589;SDS011;12231;42.782;23.388;2023-04-07T06:21:40;58.80;;;31.20;;
19589;SDS011;12231;42.782;23.388;2023-04-07T06:24:06;60.70;;;30.70;;
19589;SDS011;12231;42.782;23.388;2023-04-07T06:26:31;71.07;;;31.67;;
19589;SDS011;12231;42.782;23.388;2023-04-07T06:28:57;33.17;;;19.47;;
19589;SDS011;12231;42.782;23.388;2023-04-07T06:31:23;32.10;;;19.13;;
19589;SDS011;12231;42.782;23.388;2023-04-07T06:33:49;32.00;;;18.03;;
19589;SDS011;12231;42.782;23.388;2023-04-07T06:36:15;24.27;;;15.73;;
19589;SDS011;12231;42.782;23.388;2023-04-07T06:38:41;23.13;;;14.77;;
19589;SDS011;12231;42.782;23.388;2023-04-07T06:41:06;18.77;;;11.63;;
19589;SDS011;12231;42.782;23.388;2023-04-07T06:43:35;20.97;;;11.77;;
19589;SDS011;12231;42.782;23.388;2023-04-07T06:46:01;23.40;;;13.17;;
19589;SDS011;12231;42.782;23.388;2023-04-07T06:48:26;17.57;;;11.87;;
19589;SDS011;12231;42.782;23.388;2023-04-07T06:50:52;11.70;;;9.20;;
19589;SDS011;12231;42.782;23.388;2023-04-07T06:53:17;14.17;;;9.93;;
19589;SDS011;12231;42.782;23.388;2023-04-07T06:55:42;11.77;;;9.33;;
19589;SDS011;12231;42.782;23.388;2023-04-07T06:58:08;19.90;;;11.83;;
19589;SDS011;12231;42.782;23.388;2023-04-07T07:00:33;18.80;;;13.63;;
19589;SDS011;12231;42.782;23.388;2023-04-07T07:03:00;16.13;;;11.57;;
19589;SDS011;12231;42.782;23.388;2023-04-07T07:05:25;25.00;;;13.67;;
19589;SDS011;12231;42.782;23.388;2023-04-07T07:07:51;16.93;;;10.83;;
19589;SDS011;12231;42.782;23.388;2023-04-07T07:10:16;19.92;;;14.07;;
19589;SDS011;12231;42.782;23.388;2023-04-07T07:12:42;18.30;;;12.73;;
19589;SDS011;12231;42.782;23.388;2023-04-07T07:15:07;17.67;;;11.32;;
19589;SDS011;12231;42.782;23.388;2023-04-07T07:17:33;19.35;;;11.63;;
19589;SDS011;12231;42.782;23.388;2023-04-07T07:19:58;16.00;;;10.48;;
19589;SDS011;12231;42.782;23.388;2023-04-07T07:22:24;12.93;;;9.60;;
19589;SDS011;12231;42.782;23.388;2023-04-07T07:24:49;15.48;;;10.07;;
19589;SDS011;12231;42.782;23.388;2023-04-07T07:27:15;16.95;;;9.70;;
19589;SDS011;12231;42.782;23.388;2023-04-07T07:29:40;12.98;;;9.77;;
19589;SDS011;12231;42.782;23.388;2023-04-07T07:32:06;16.52;;;12.80;;
19589;SDS011;12231;42.782;23.388;2023-04-07T07:34:31;16.73;;;10.63;;
19589;SDS011;12231;42.782;23.388;2023-04-07T07:36:57;16.77;;;10.85;;
19589;SDS011;12231;42.782;23.388;2023-04-07T07:39:23;10.93;;;9.05;;
19589;SDS011;12231;42.782;23.388;2023-04-07T07:41:49;12.65;;;9.77;;
19589;SDS011;12231;42.782;23.388;2023-04-07T07:44:15;17.00;;;11.65;;
19589;SDS011;12231;42.782;23.388;2023-04-07T07:46:40;12.75;;;9.05;;
19589;SDS011;12231;42.782;23.388;2023-04-07T07:49:06;14.45;;;8.50;;
19589;SDS011;12231;42.782;23.388;2023-04-07T07:51:31;9.85;;;7.68;;
19589;SDS011;12231;42.782;23.388;2023-04-07T07:53:57;9.88;;;7.20;;
19589;SDS011;12231;42.782;23.388;2023-04-07T07:56:22;10.10;;;6.93;;
19589;SDS011;12231;42.782;23.388;2023-04-07T07:58:49;9.07;;;6.45;;
19589;SDS011;12231;42.782;23.388;2023-04-07T08:01:14;8.23;;;5.40;;
19589;SDS011;12231;42.782;23.388;2023-04-07T08:03:40;8.20;;;5.75;;
19589;SDS011;12231;42.782;23.388;2023-04-07T08:06:05;7.33;;;6.00;;
19589;SDS011;12231;42.782;23.388;2023-04-07T08:08:31;10.77;;;8.60;;
19589;SDS011;12231;42.782;23.388;2023-04-07T08:10:56;6.97;;;5.27;;
19589;SDS011;12231;42.782;23.388;2023-04-07T08:13:22;7.10;;;4.90;;
19589;SDS011;12231;42.782;23.388;2023-04-07T08:15:47;6.67;;;5.57;;
19589;SDS011;12231;42.782;23.388;2023-04-07T08:18:12;7.17;;;4.93;;
19589;SDS011;12231;42.782;23.388;2023-04-07T08:20:38;7.27;;;6.00;;
19589;SDS011;12231;42.782;23.388;2023-04-07T08:23:03;8.17;;;5.60;;
19589;SDS011;12231;42.782;23.388;2023-04-07T08:25:29;10.17;;;5.97;;
19589;SDS011;12231;42.782;23.388;2023-04-07T08:27:54;5.60;;;5.00;;
19589;SDS011;12231;42.782;23.388;2023-04-07T08:30:20;8.47;;;5.63;;
19589;SDS011;12231;42.782;23.388;2023-04-07T08:32:46;8.67;;;5.73;;
19589;SDS011;12231;42.782;23.388;2023-04-07T08:35:12;9.80;;;5.83;;
19589;SDS011;12231;42.782;23.388;2023-04-07T08:37:37;6.83;;;5.00;;
19589;SDS011;12231;42.782;23.388;2023-04-07T08:40:05;8.73;;;5.67;;
19589;SDS011;12231;42.782;23.388;2023-04-07T08:42:31;9.13;;;5.20;;
19589;SDS011;12231;42.782;23.388;2023-04-07T08:45:05;10.10;;;7.20;;
19589;SDS011;12231;42.782;23.388;2023-04-07T08:47:32;17.23;;;7.40;;
19589;SDS011;12231;42.782;23.388;2023-04-07T08:50:00;7.00;;;5.07;;
19589;SDS011;12231;42.782;23.388;2023-04-07T09:10:58;15.63;;;10.93;;
19589;SDS011;12231;42.782;23.388;2023-04-07T09:13:24;8.32;;;5.72;;
19589;SDS011;12231;42.782;23.388;2023-04-07T09:15:49;7.00;;;5.83;;
19589;SDS011;12231;42.782;23.388;2023-04-07T09:18:16;7.13;;;4.77;;
19589;SDS011;12231;42.782;23.388;2023-04-07T09:23:28;19.90;;;15.80;;
19589;SDS011;12231;42.782;23.388;2023-04-07T09:25:56;10.80;;;8.57;;
19589;SDS011;12231;42.782;23.388;2023-04-07T09:28:41;7.97;;;4.90;;
19589;SDS011;12231;42.782;23.388;2023-04-07T09:31:07;11.57;;;7.93;;
19589;SDS011;12231;42.782;23.388;2023-04-07T09:33:33;7.23;;;5.93;;
19589;SDS011;12231;42.782;23.388;2023-04-07T09:36:00;14.10;;;7.53;;
19589;SDS011;12231;42.782;23.388;2023-04-07T09:38:35;5.77;;;5.07;;
19589;SDS011;12231;42.782;23.388;2023-04-07T09:41:09;8.40;;;5.10;;
19589;SDS011;12231;42.782;23.388;2023-04-07T09:43:38;15.17;;;9.30;;
19589;SDS011;12231;42.782;23.388;2023-04-07T09:48:35;7.57;;;6.70;;
19589;SDS011;12231;42.782;23.388;2023-04-07T09:51:04;8.07;;;6.63;;
19589;SDS011;12231;42.782;23.388;2023-04-07T09:53:44;6.17;;;5.20;;
19589;SDS011;12231;42.782;23.388;2023-04-07T09:56:11;7.70;;;5.20;;
19589;SDS011;12231;42.782;23.388;2023-04-07T09:58:37;15.95;;;13.20;;
19589;SDS011;12231;42.782;23.388;2023-04-07T10:01:05;8.45;;;6.80;;
19589;SDS011;12231;42.782;23.388;2023-04-07T10:03:35;6.97;;;6.28;;
19589;SDS011;12231;42.782;23.388;2023-04-07T10:06:02;7.80;;;6.85;;
19589;SDS011;12231;42.782;23.388;2023-04-07T10:08:30;11.60;;;6.85;;
19589;SDS011;12231;42.782;23.388;2023-04-07T10:10:57;8.18;;;5.20;;
19589;SDS011;12231;42.782;23.388;2023-04-07T10:13:25;6.63;;;5.65;;
19589;SDS011;12231;42.782;23.388;2023-04-07T10:15:52;7.97;;;5.78;;
19589;SDS011;12231;42.782;23.388;2023-04-07T10:18:18;15.05;;;9.80;;
19589;SDS011;12231;42.782;23.388;2023-04-07T10:20:45;6.95;;;5.68;;
19589;SDS011;12231;42.782;23.388;2023-04-07T10:23:27;8.43;;;6.03;;
19589;SDS011;12231;42.782;23.388;2023-04-07T10:26:14;9.02;;;6.32;;
19589;SDS011;12231;42.782;23.388;2023-04-07T10:28:43;6.65;;;5.80;;
19589;SDS011;12231;42.782;23.388;2023-04-07T10:31:13;8.90;;;6.90;;
19589;SDS011;12231;42.782;23.388;2023-04-07T10:33:46;7.85;;;6.55;;
19589;SDS011;12231;42.782;23.388;2023-04-07T10:36:16;6.07;;;4.90;;
19589;SDS011;12231;42.782;23.388;2023-04-07T10:38:49;8.38;;;5.75;;
19589;SDS011;12231;42.782;23.388;2023-04-07T10:41:31;6.88;;;5.85;;
19589;SDS011;12231;42.782;23.388;2023-04-07T10:44:06;8.18;;;5.90;;
19589;SDS011;12231;42.782;23.388;2023-04-07T10:49:12;8.27;;;5.85;;
19589;SDS011;12231;42.782;23.388;2023-04-07T10:51:38;7.07;;;5.32;;
19589;SDS011;12231;42.782;23.388;2023-04-07T10:54:17;7.68;;;5.45;;
19589;SDS011;12231;42.782;23.388;2023-04-07T10:59:34;7.40;;;5.20;;
19589;SDS011;12231;42.782;23.388;2023-04-07T11:04:44;15.57;;;8.83;;
19589;SDS011;12231;42.782;23.388;2023-04-07T11:07:11;44.38;;;25.50;;
19589;SDS011;12231;42.782;23.388;2023-04-07T11:09:38;68.47;;;42.77;;
19589;SDS011;12231;42.782;23.388;2023-04-07T11:12:04;11.03;;;7.30;;
19589;SDS011;12231;42.782;23.388;2023-04-07T11:14:31;9.33;;;7.50;;
19589;SDS011;12231;42.782;23.388;2023-04-07T11:16:57;6.70;;;5.90;;
19589;SDS011;12231;42.782;23.388;2023-04-07T11:19:23;16.00;;;11.57;;
19589;SDS011;12231;42.782;23.388;2023-04-07T11:21:49;12.90;;;9.87;;
19589;SDS011;12231;42.782;23.388;2023-04-07T11:24:33;8.03;;;6.07;;
19589;SDS011;12231;42.782;23.388;2023-04-07T11:27:01;7.63;;;6.30;;
19589;SDS011;12231;42.782;23.388;2023-04-07T11:29:27;8.03;;;6.57;;
19589;SDS011;12231;42.782;23.388;2023-04-07T11:32:00;7.40;;;6.00;;
19589;SDS011;12231;42.782;23.388;2023-04-07T11:34:32;8.37;;;5.70;;
19589;SDS011;12231;42.782;23.388;2023-04-07T11:39:50;6.43;;;5.53;;
19589;SDS011;12231;42.782;23.388;2023-04-07T11:42:29;8.00;;;5.50;;
19589;SDS011;12231;42.782;23.388;2023-04-07T11:44:56;9.60;;;5.80;;
19589;SDS011;12231;42.782;23.388;2023-04-07T11:47:21;10.93;;;9.83;;
19589;SDS011;12231;42.782;23.388;2023-04-07T11:49:58;7.17;;;6.27;;
19589;SDS011;12231;42.782;23.388;2023-04-07T11:52:23;7.60;;;5.67;;
19589;SDS011;12231;42.782;23.388;2023-04-07T11:54:50;7.93;;;6.20;;
19589;SDS011;12231;42.782;23.388;2023-04-07T11:57:25;7.23;;;6.33;;
19589;SDS011;12231;42.782;23.388;2023-04-07T12:00:05;8.60;;;7.07;;
19589;SDS011;12231;42.782;23.388;2023-04-07T12:02:32;8.60;;;6.70;;
19589;SDS011;12231;42.782;23.388;2023-04-07T12:04:58;7.70;;;5.40;;
19589;SDS011;12231;42.782;23.388;2023-04-07T12:07:24;11.07;;;6.50;;
19589;SDS011;12231;42.782;23.388;2023-04-07T12:09:49;7.87;;;6.57;;
19589;SDS011;12231;42.782;23.388;2023-04-07T12:12:15;10.67;;;6.70;;
19589;SDS011;12231;42.782;23.388;2023-04-07T12:14:52;8.13;;;5.90;;
19589;SDS011;12231;42.782;23.388;2023-04-07T12:17:19;6.50;;;5.77;;
19589;SDS011;12231;42.782;23.388;2023-04-07T12:19:48;8.75;;;5.57;;
19589;SDS011;12231;42.782;23.388;2023-04-07T12:22:14;8.50;;;6.23;;
19589;SDS011;12231;42.782;23.388;2023-04-07T12:24:40;8.90;;;6.25;;
19589;SDS011;12231;42.782;23.388;2023-04-07T12:27:05;13.18;;;8.50;;
19589;SDS011;12231;42.782;23.388;2023-04-07T12:29:32;8.90;;;6.40;;
19589;SDS011;12231;42.782;23.388;2023-04-07T12:31:58;9.47;;;6.30;;
19589;SDS011;12231;42.782;23.388;2023-04-07T12:34:23;6.10;;;5.50;;
19589;SDS011;12231;42.782;23.388;2023-04-07T12:36:48;9.50;;;6.30;;
19589;SDS011;12231;42.782;23.388;2023-04-07T12:39:14;6.73;;;5.67;;
19589;SDS011;12231;42.782;23.388;2023-04-07T12:41:40;18.97;;;10.07;;
19589;SDS011;12231;42.782;23.388;2023-04-07T12:44:06;21.97;;;11.10;;
19589;SDS011;12231;42.782;23.388;2023-04-07T12:46:31;8.37;;;6.50;;
19589;SDS011;12231;42.782;23.388;2023-04-07T12:48:57;12.77;;;7.30;;
19589;SDS011;12231;42.782;23.388;2023-04-07T12:51:24;9.63;;;6.57;;
19589;SDS011;12231;42.782;23.388;2023-04-07T12:53:50;9.98;;;6.78;;
19589;SDS011;12231;42.782;23.388;2023-04-07T12:56:15;10.07;;;7.07;;
19589;SDS011;12231;42.782;23.388;2023-04-07T12:58:41;14.03;;;7.53;;
19589;SDS011;12231;42.782;23.388;2023-04-07T13:01:07;5.83;;;5.20;;
19589;SDS011;12231;42.782;23.388;2023-04-07T13:03:32;12.25;;;5.43;;
19589;SDS011;12231;42.782;23.388;2023-04-07T13:05:58;7.57;;;5.67;;
19589;SDS011;12231;42.782;23.388;2023-04-07T13:08:26;8.63;;;5.60;;
19589;SDS011;12231;42.782;23.388;2023-04-07T13:10:53;9.33;;;6.97;;
19589;SDS011;12231;42.782;23.388;2023-04-07T13:13:18;7.27;;;5.70;;
19589;SDS011;12231;42.782;23.388;2023-04-07T13:15:43;8.93;;;6.43;;
19589;SDS011;12231;42.782;23.388;2023-04-07T13:18:09;7.50;;;6.03;;
19589;SDS011;12231;42.782;23.388;2023-04-07T13:20:34;6.90;;;5.77;;
19589;SDS011;12231;42.782;23.388;2023-04-07T13:23:00;9.23;;;6.33;;
19589;SDS011;12231;42.782;23.388;2023-04-07T13:25:25;6.13;;;5.13;;
19589;SDS011;12231;42.782;23.388;2023-04-07T13:27:51;6.40;;;5.70;;
19589;SDS011;12231;42.782;23.388;2023-04-07T13:30:16;7.20;;;5.40;;
19589;SDS011;12231;42.782;23.388;2023-04-07T13:32:42;6.33;;;5.43;;
19589;SDS011;12231;42.782;23.388;2023-04-07T13:35:07;12.73;;;9.07;;
19589;SDS011;12231;42.782;23.388;2023-04-07T13:37:33;7.57;;;6.00;;
19589;SDS011;12231;42.782;23.388;2023-04-07T13:39:58;7.93;;;7.13;;
19589;SDS011;12231;42.782;23.388;2023-04-07T13:42:24;7.50;;;5.93;;
19589;SDS011;12231;42.782;23.388;2023-04-07T13:44:49;14.40;;;8.97;;
19589;SDS011;12231;42.782;23.388;2023-04-07T13:47:16;15.80;;;9.23;;
19589;SDS011;12231;42.782;23.388;2023-04-07T13:49:46;20.33;;;11.90;;
19589;SDS011;12231;42.782;23.388;2023-04-07T13:52:12;11.70;;;7.83;;
19589;SDS011;12231;42.782;23.388;2023-04-07T13:54:38;12.67;;;9.00;;
19589;SDS011;12231;42.782;23.388;2023-04-07T13:57:03;7.73;;;6.70;;
19589;SDS011;12231;42.782;23.388;2023-04-07T13:59:29;54.00;;;25.90;;
19589;SDS011;12231;42.782;23.388;2023-04-07T14:01:55;70.27;;;29.33;;
19589;SDS011;12231;42.782;23.388;2023-04-07T14:04:20;24.70;;;12.53;;
19589;SDS011;12231;42.782;23.388;2023-04-07T14:06:46;50.50;;;23.00;;
19589;SDS011;12231;42.782;23.388;2023-04-07T14:09:12;11.90;;;8.23;;
19589;SDS011;12231;42.782;23.388;2023-04-07T14:11:37;9.83;;;7.43;;
19589;SDS011;12231;42.782;23.388;2023-04-07T14:14:03;11.40;;;7.80;;
19589;SDS011;12231;42.782;23.388;2023-04-07T14:16:28;12.10;;;9.23;;
19589;SDS011;12231;42.782;23.388;2023-04-07T14:18:55;9.97;;;6.60;;
19589;SDS011;12231;42.782;23.388;2023-04-07T14:21:21;11.87;;;7.23;;
19589;SDS011;12231;42.782;23.388;2023-04-07T14:23:46;13.57;;;9.20;;
19589;SDS011;12231;42.782;23.388;2023-04-07T14:26:12;14.27;;;7.47;;
19589;SDS011;12231;42.782;23.388;2023-04-07T14:28:37;10.33;;;7.40;;
19589;SDS011;12231;42.782;23.388;2023-04-07T14:31:03;15.53;;;8.23;;
19589;SDS011;12231;42.782;23.388;2023-04-07T14:33:28;12.20;;;8.07;;
19589;SDS011;12231;42.782;23.388;2023-04-07T14:35:54;18.27;;;10.70;;
19589;SDS011;12231;42.782;23.388;2023-04-07T14:38:19;18.00;;;11.87;;
19589;SDS011;12231;42.782;23.388;2023-04-07T14:40:48;18.30;;;9.43;;
19589;SDS011;12231;42.782;23.388;2023-04-07T14:43:14;11.43;;;8.47;;
19589;SDS011;12231;42.782;23.388;2023-04-07T14:45:39;8.60;;;6.80;;
19589;SDS011;12231;42.782;23.388;2023-04-07T14:48:05;13.67;;;7.90;;
19589;SDS011;12231;42.782;23.388;2023-04-07T14:50:31;8.67;;;6.57;;
19589;SDS011;12231;42.782;23.388;2023-04-07T14:52:57;11.40;;;7.13;;
19589;SDS011;12231;42.782;23.388;2023-04-07T14:55:23;8.53;;;6.57;;
19589;SDS011;12231;42.782;23.388;2023-04-07T14:57:49;11.10;;;8.10;;